Time;durP1;ratioP1;P1;durP2;ratioP2;P2;SDS_P1;SDS_P2;PMS_P1;PMS_P2;Temp;Humidity;BMP_temperature;BMP_pressure;BME280_temperature;BME280_humidity;BME280_pressure;Samples;Min_cycle;Max_cycle;Signal;HPM_P1;HPM_P2
2023/08/11 00:00:05;;;;;;;763.63;684.28;;;;;;;;;;5023466;28;20045;-64
2023/08/11 00:02:37;;;;;;;751.88;672.65;;;;;;;;;;5022372;28;20552;-64
2023/08/11 00:05:05;;;;;;;752.80;673.05;;;;;;;;;;5024385;28;20045;-64
2023/08/11 00:07:32;;;;;;;748.50;670.08;;;;;;;;;;5025945;28;20078;-64
2023/08/11 00:09:58;;;;;;;749.00;670.08;;;;;;;;;;5023201;28;20121;-63
2023/08/11 00:12:25;;;;;;;739.22;660.95;;;;;;;;;;5023592;28;20045;-63
2023/08/11 00:14:52;;;;;;;753.75;674.05;;;;;;;;;;5021606;28;20107;-63
2023/08/11 00:17:19;;;;;;;751.40;668.92;;;;;;;;;;5004093;28;20054;-63
2023/08/11 00:19:46;;;;;;;746.22;667.67;;;;;;;;;;5020889;28;20045;-63
2023/08/11 00:22:12;;;;;;;735.75;657.65;;;;;;;;;;5020574;28;20145;-63
2023/08/11 00:24:39;;;;;;;722.53;644.92;;;;;;;;;;5022029;28;20041;-64
2023/08/11 00:27:06;;;;;;;716.97;639.72;;;;;;;;;;5022376;28;20037;-63
2023/08/11 00:29:34;;;;;;;730.72;650.58;;;;;;;;;;5006598;28;20061;-63
2023/08/11 00:32:01;;;;;;;703.92;627.80;;;;;;;;;;5006663;28;20046;-63
2023/08/11 00:34:27;;;;;;;712.53;634.85;;;;;;;;;;5024361;28;20061;-63
2023/08/11 00:36:55;;;;;;;711.40;633.60;;;;;;;;;;5026472;28;20057;-65
2023/08/11 00:39:22;;;;;;;720.38;641.05;;;;;;;;;;5027266;28;20041;-63
2023/08/11 00:41:48;;;;;;;703.38;625.90;;;;;;;;;;5014046;28;20042;-64
2023/08/11 00:44:16;;;;;;;710.42;632.72;;;;;;;;;;5025708;28;20124;-66
2023/08/11 00:46:43;;;;;;;703.17;625.78;;;;;;;;;;5009645;28;20058;-63
2023/08/11 00:49:10;;;;;;;703.35;612.40;;;;;;;;;;5040114;28;20192;-63
2023/08/11 00:51:36;;;;;;;693.70;612.53;;;;;;;;;;5009004;28;20045;-63
2023/08/11 00:54:04;;;;;;;704.28;608.20;;;;;;;;;;5008776;28;20096;-63
2023/08/11 00:56:30;;;;;;;732.35;616.25;;;;;;;;;;5025492;28;20053;-63
2023/08/11 00:58:57;;;;;;;692.15;603.22;;;;;;;;;;5023932;28;20388;-64
2023/08/11 01:01:24;;;;;;;685.53;595.88;;;;;;;;;;5007354;28;20045;-63
2023/08/11 01:03:51;;;;;;;686.25;587.83;;;;;;;;;;5022821;28;20050;-63
2023/08/11 01:06:36;;;;;;;687.22;592.90;;;;;;;;;;5021988;28;20122;-64
2023/08/11 01:09:22;;;;;;;686.60;586.15;;;;;;;;;;5025904;28;20413;-64
2023/08/11 01:11:52;;;;;;;700.45;584.42;;;;;;;;;;5026099;28;20052;-64
2023/08/11 01:14:22;;;;;;;705.60;586.33;;;;;;;;;;5028388;28;20076;-63
2023/08/11 01:16:50;;;;;;;677.40;566.97;;;;;;;;;;5029225;28;20124;-64
2023/08/11 01:19:31;;;;;;;681.15;572.22;;;;;;;;;;5026780;28;20125;-64
2023/08/11 01:21:59;;;;;;;682.45;568.58;;;;;;;;;;5022123;28;20568;-63
2023/08/11 01:24:26;;;;;;;688.63;568.00;;;;;;;;;;5020911;28;20100;-63
2023/08/11 01:26:53;;;;;;;696.72;575.00;;;;;;;;;;5007587;28;20050;-63
2023/08/11 01:29:20;;;;;;;713.35;572.15;;;;;;;;;;5005108;28;20053;-62
2023/08/11 01:31:47;;;;;;;689.17;554.33;;;;;;;;;;5013224;28;20058;-63
2023/08/11 01:34:14;;;;;;;679.83;552.20;;;;;;;;;;5025129;28;20387;-63
2023/08/11 01:36:42;;;;;;;675.33;555.08;;;;;;;;;;5011100;28;20049;-63
2023/08/11 01:39:09;;;;;;;676.20;541.20;;;;;;;;;;5024889;28;20398;-63
2023/08/11 01:41:39;;;;;;;693.50;546.47;;;;;;;;;;5025255;28;20061;-63
2023/08/11 01:44:06;;;;;;;670.53;539.45;;;;;;;;;;5025351;28;20446;-64
2023/08/11 01:46:33;;;;;;;664.97;530.60;;;;;;;;;;5015096;28;20044;-63
2023/08/11 01:49:01;;;;;;;673.42;531.83;;;;;;;;;;5009225;28;20050;-64
2023/08/11 01:51:28;;;;;;;701.15;538.28;;;;;;;;;;5030526;28;20048;-65
2023/08/11 01:53:55;;;;;;;671.35;528.40;;;;;;;;;;5029990;28;20046;-65
2023/08/11 01:56:21;;;;;;;705.05;527.97;;;;;;;;;;5028173;28;20414;-63
2023/08/11 01:58:48;;;;;;;670.38;525.42;;;;;;;;;;5010251;28;20084;-64
2023/08/11 02:01:15;;;;;;;954.60;582.92;;;;;;;;;;4832754;22;20040;-69
2023/08/11 02:03:42;;;;;;;700.22;521.83;;;;;;;;;;5019302;28;20053;-64
2023/08/11 02:06:09;;;;;;;678.95;528.65;;;;;;;;;;5023570;28;20125;-65
2023/08/11 02:08:36;;;;;;;709.05;525.25;;;;;;;;;;5023210;28;20056;-65
2023/08/11 02:11:03;;;;;;;675.60;514.65;;;;;;;;;;5026666;28;20048;-65
2023/08/11 02:13:30;;;;;;;674.20;516.55;;;;;;;;;;5024801;28;20057;-66
2023/08/11 02:16:00;;;;;;;678.95;515.78;;;;;;;;;;5024032;28;20109;-65
2023/08/11 02:18:27;;;;;;;694.70;524.28;;;;;;;;;;5024674;28;20137;-65
2023/08/11 02:20:53;;;;;;;688.13;514.45;;;;;;;;;;5021572;28;20045;-65
2023/08/11 02:23:20;;;;;;;698.47;527.50;;;;;;;;;;5021904;28;20045;-65
2023/08/11 02:25:47;;;;;;;695.38;524.00;;;;;;;;;;5022470;28;20385;-64
2023/08/11 02:28:15;;;;;;;676.50;502.77;;;;;;;;;;5030338;28;20041;-65
2023/08/11 02:30:41;;;;;;;691.83;513.25;;;;;;;;;;5021173;28;20064;-64
2023/08/11 02:33:08;;;;;;;677.72;504.00;;;;;;;;;;5022740;28;20373;-67
2023/08/11 02:35:35;;;;;;;703.72;507.58;;;;;;;;;;5030881;28;20077;-66
2023/08/11 02:38:01;;;;;;;672.83;498.83;;;;;;;;;;5022354;28;20104;-65
2023/08/11 02:40:29;;;;;;;673.42;498.45;;;;;;;;;;5021803;28;20038;-64
2023/08/11 02:42:56;;;;;;;686.78;511.73;;;;;;;;;;5025322;28;20041;-64
2023/08/11 02:45:24;;;;;;;675.53;497.55;;;;;;;;;;5022784;28;20069;-63
2023/08/11 02:47:51;;;;;;;696.65;506.77;;;;;;;;;;5025064;28;20045;-64
2023/08/11 02:50:18;;;;;;;680.50;490.63;;;;;;;;;;5022383;28;20041;-63
2023/08/11 02:52:44;;;;;;;679.75;503.42;;;;;;;;;;5029681;28;20045;-63
2023/08/11 02:55:11;;;;;;;679.38;487.33;;;;;;;;;;5020049;28;20045;-64
2023/08/11 02:57:38;;;;;;;681.20;496.80;;;;;;;;;;5026441;28;20136;-63
2023/08/11 03:00:12;;;;;;;684.53;488.55;;;;;;;;;;5023417;28;20041;-63
2023/08/11 03:02:40;;;;;;;682.17;491.40;;;;;;;;;;5012860;28;20037;-64
2023/08/11 03:05:07;;;;;;;672.35;486.02;;;;;;;;;;5019881;28;20445;-64
2023/08/11 03:07:36;;;;;;;668.17;482.67;;;;;;;;;;5003549;28;20544;-64
2023/08/11 03:10:03;;;;;;;677.13;486.20;;;;;;;;;;5022409;28;20474;-65
2023/08/11 03:12:30;;;;;;;685.65;481.17;;;;;;;;;;5007373;28;20150;-65
2023/08/11 03:14:57;;;;;;;686.38;485.40;;;;;;;;;;5022787;28;20056;-64
2023/08/11 03:17:24;;;;;;;712.25;486.75;;;;;;;;;;5021602;28;20045;-65
2023/08/11 03:19:52;;;;;;;672.00;473.65;;;;;;;;;;5022913;28;20120;-68
2023/08/11 03:22:19;;;;;;;677.55;478.80;;;;;;;;;;5021018;28;20459;-65
2023/08/11 03:24:47;;;;;;;678.10;471.63;;;;;;;;;;5021430;28;20046;-63
2023/08/11 03:27:17;;;;;;;686.88;471.38;;;;;;;;;;5020337;28;20042;-64
2023/08/11 03:29:44;;;;;;;680.80;471.17;;;;;;;;;;5005340;28;20048;-64
2023/08/11 03:32:11;;;;;;;686.38;475.05;;;;;;;;;;5019978;28;20041;-63
2023/08/11 03:34:38;;;;;;;690.80;483.48;;;;;;;;;;5020507;28;20037;-65
2023/08/11 03:37:06;;;;;;;671.33;474.52;;;;;;;;;;5012030;28;20100;-64
2023/08/11 03:39:33;;;;;;;679.50;474.05;;;;;;;;;;5021226;28;20041;-64
2023/08/11 03:42:00;;;;;;;692.85;487.33;;;;;;;;;;5022066;28;20041;-65
2023/08/11 03:44:27;;;;;;;713.38;493.58;;;;;;;;;;5024488;28;20565;-65
2023/08/11 03:46:53;;;;;;;670.80;477.05;;;;;;;;;;5023522;28;20041;-64
2023/08/11 03:49:20;;;;;;;682.47;480.98;;;;;;;;;;5024201;28;20052;-63
2023/08/11 03:51:47;;;;;;;677.35;471.55;;;;;;;;;;5022585;28;20037;-63
2023/08/11 03:54:15;;;;;;;686.47;484.10;;;;;;;;;;5021710;28;20059;-64
2023/08/11 03:56:41;;;;;;;685.08;479.45;;;;;;;;;;5021654;28;20041;-65
2023/08/11 03:59:08;;;;;;;683.28;482.10;;;;;;;;;;5023393;28;20041;-65
2023/08/11 04:01:35;;;;;;;672.60;478.02;;;;;;;;;;5022219;28;20050;-64
2023/08/11 04:04:02;;;;;;;674.85;475.08;;;;;;;;;;5018621;28;20376;-65
2023/08/11 04:06:34;;;;;;;688.20;495.90;;;;;;;;;;5021036;28;20088;-63
2023/08/11 04:09:01;;;;;;;683.85;489.58;;;;;;;;;;5022869;28;20113;-64
2023/08/11 04:11:29;;;;;;;718.28;498.98;;;;;;;;;;5002873;28;20513;-64
2023/08/11 04:13:56;;;;;;;674.97;488.67;;;;;;;;;;5025092;28;20536;-64
2023/08/11 04:16:23;;;;;;;692.88;492.75;;;;;;;;;;5023087;28;20053;-64
2023/08/11 04:18:50;;;;;;;683.72;507.00;;;;;;;;;;5024113;28;20045;-64
2023/08/11 04:21:17;;;;;;;688.90;505.00;;;;;;;;;;5022184;28;20063;-64
2023/08/11 04:23:43;;;;;;;678.00;503.15;;;;;;;;;;5022826;28;20045;-64
2023/08/11 04:26:11;;;;;;;682.35;512.60;;;;;;;;;;5027966;28;20131;-63
2023/08/11 04:28:38;;;;;;;678.83;516.05;;;;;;;;;;5023483;28;20117;-70
2023/08/11 04:31:09;;;;;;;688.22;530.80;;;;;;;;;;5026506;28;20033;-63
2023/08/11 04:33:37;;;;;;;692.35;528.35;;;;;;;;;;5019986;28;20375;-63
2023/08/11 04:36:04;;;;;;;701.75;570.65;;;;;;;;;;5020566;28;20065;-63
2023/08/11 04:38:31;;;;;;;740.58;616.35;;;;;;;;;;5028918;28;20045;-64
2023/08/11 04:40:58;;;;;;;725.40;640.75;;;;;;;;;;5000321;28;20395;-65
2023/08/11 04:43:25;;;;;;;760.75;680.35;;;;;;;;;;5018743;28;20038;-65
2023/08/11 04:45:52;;;;;;;794.13;712.80;;;;;;;;;;5023389;28;20045;-64
2023/08/11 04:48:21;;;;;;;834.90;751.78;;;;;;;;;;5022874;28;20042;-65
2023/08/11 04:50:52;;;;;;;869.47;785.00;;;;;;;;;;5028001;28;20056;-64
2023/08/11 04:53:20;;;;;;;888.08;802.72;;;;;;;;;;5025491;28;20141;-66
2023/08/11 04:55:48;;;;;;;911.67;825.25;;;;;;;;;;5020496;28;20057;-65
2023/08/11 04:58:14;;;;;;;932.97;840.13;;;;;;;;;;5024353;28;20048;-65
2023/08/11 05:00:42;;;;;;;949.83;861.38;;;;;;;;;;5020748;28;20053;-65
2023/08/11 05:03:09;;;;;;;964.33;875.92;;;;;;;;;;5027101;28;20045;-64
2023/08/11 05:05:36;;;;;;;994.22;900.35;;;;;;;;;;5018592;28;20045;-64
2023/08/11 05:08:03;;;;;;;992.75;902.72;;;;;;;;;;5020070;28;20126;-67
2023/08/11 05:10:30;;;;;;;1004.13;913.53;;;;;;;;;;5020989;28;20492;-65
2023/08/11 05:12:57;;;;;;;1015.78;922.92;;;;;;;;;;5022120;28;20034;-66
2023/08/11 05:15:24;;;;;;;1022.90;931.25;;;;;;;;;;5031288;28;20549;-66
2023/08/11 05:17:50;;;;;;;1027.45;934.38;;;;;;;;;;5025010;28;20052;-64
2023/08/11 05:20:17;;;;;;;1038.55;946.03;;;;;;;;;;5023708;28;20509;-64
2023/08/11 05:22:44;;;;;;;1053.20;959.22;;;;;;;;;;5027123;28;20049;-63
2023/08/11 05:25:11;;;;;;;1052.68;959.63;;;;;;;;;;5023011;28;20068;-64
2023/08/11 05:27:38;;;;;;;1054.05;959.65;;;;;;;;;;5025091;28;20136;-69
2023/08/11 05:30:08;;;;;;;1059.70;966.72;;;;;;;;;;5022412;28;20038;-64
2023/08/11 05:32:36;;;;;;;1073.60;974.78;;;;;;;;;;5026562;28;20042;-65
2023/08/11 05:35:03;;;;;;;1064.82;971.75;;;;;;;;;;5022175;28;20129;-63
2023/08/11 05:37:30;;;;;;;1067.10;973.78;;;;;;;;;;5024774;28;20041;-65
2023/08/11 05:39:56;;;;;;;1081.03;987.08;;;;;;;;;;5022103;28;20042;-64
2023/08/11 05:42:23;;;;;;;1094.43;996.85;;;;;;;;;;5022023;28;20042;-64
2023/08/11 05:44:50;;;;;;;1093.22;995.00;;;;;;;;;;5023854;28;20049;-65
2023/08/11 05:47:17;;;;;;;1089.15;992.30;;;;;;;;;;5028605;28;20437;-64
2023/08/11 05:49:44;;;;;;;1094.70;996.13;;;;;;;;;;5027456;28;20042;-64
2023/08/11 05:52:10;;;;;;;1107.35;999.90;;;;;;;;;;5027631;28;20409;-65
2023/08/11 05:54:37;;;;;;;1105.35;999.90;;;;;;;;;;5012990;28;20034;-64
2023/08/11 05:57:04;;;;;;;1110.60;999.90;;;;;;;;;;5025194;28;20050;-62
2023/08/11 05:59:31;;;;;;;1120.45;999.90;;;;;;;;;;5028671;28;20393;-65
2023/08/11 06:01:58;;;;;;;1123.90;999.90;;;;;;;;;;5024936;28;20561;-63
2023/08/11 06:04:24;;;;;;;1130.25;999.90;;;;;;;;;;5030125;28;20053;-63
2023/08/11 06:06:51;;;;;;;1117.50;999.90;;;;;;;;;;5026634;28;20034;-64
2023/08/11 06:09:18;;;;;;;1111.93;999.90;;;;;;;;;;5031323;28;20042;-65
2023/08/11 06:11:45;;;;;;;1120.43;999.90;;;;;;;;;;5029593;28;20391;-65
2023/08/11 06:14:12;;;;;;;1138.70;999.90;;;;;;;;;;5025287;28;20064;-63
2023/08/11 06:16:39;;;;;;;1134.82;999.90;;;;;;;;;;5029533;28;20703;-63
2023/08/11 06:19:05;;;;;;;1141.22;999.90;;;;;;;;;;5031054;28;20489;-61
2023/08/11 06:21:32;;;;;;;1148.47;999.90;;;;;;;;;;5031955;28;20096;-63
2023/08/11 06:23:59;;;;;;;1148.40;999.90;;;;;;;;;;5025349;28;20042;-61
2023/08/11 06:26:26;;;;;;;1146.97;999.90;;;;;;;;;;5026859;28;20110;-64
2023/08/11 06:28:53;;;;;;;1150.97;999.90;;;;;;;;;;5029258;28;20041;-62
2023/08/11 06:31:20;;;;;;;1156.70;999.90;;;;;;;;;;5031067;28;20466;-65
2023/08/11 06:33:47;;;;;;;1155.22;999.90;;;;;;;;;;5009244;28;20045;-62
2023/08/11 06:36:13;;;;;;;1155.18;999.90;;;;;;;;;;5028760;28;20042;-61
2023/08/11 06:38:40;;;;;;;1154.65;999.90;;;;;;;;;;5028063;28;20052;-62
2023/08/11 06:41:07;;;;;;;1157.53;999.90;;;;;;;;;;5026990;28;20046;-61
2023/08/11 06:43:33;;;;;;;1163.88;999.90;;;;;;;;;;5025087;28;20069;-61
2023/08/11 06:46:00;;;;;;;1161.20;999.90;;;;;;;;;;5019006;28;20045;-64
2023/08/11 06:48:27;;;;;;;1168.82;999.90;;;;;;;;;;5015744;28;20052;-62
2023/08/11 06:50:56;;;;;;;1160.25;999.90;;;;;;;;;;5030097;28;20053;-62
2023/08/11 06:53:23;;;;;;;1163.95;999.90;;;;;;;;;;5026862;28;20098;-65
2023/08/11 06:55:50;;;;;;;1169.25;999.90;;;;;;;;;;5028118;28;20059;-62
2023/08/11 06:58:17;;;;;;;1165.68;999.90;;;;;;;;;;5011230;28;20057;-67
2023/08/11 07:00:44;;;;;;;1154.90;999.90;;;;;;;;;;5010386;28;20124;-62
2023/08/11 07:03:11;;;;;;;1162.20;999.90;;;;;;;;;;5027527;28;20065;-62
2023/08/11 07:05:37;;;;;;;1188.70;999.90;;;;;;;;;;5025394;28;20482;-62
2023/08/11 07:08:04;;;;;;;1182.35;999.90;;;;;;;;;;5026664;28;20041;-61
2023/08/11 07:10:31;;;;;;;1180.47;999.90;;;;;;;;;;5027241;28;20037;-63
2023/08/11 07:12:58;;;;;;;1180.68;999.90;;;;;;;;;;5023383;28;20034;-61
2023/08/11 07:15:25;;;;;;;1174.35;999.90;;;;;;;;;;5026104;28;20030;-64
2023/08/11 07:17:51;;;;;;;1184.57;999.90;;;;;;;;;;5026355;28;20049;-62
2023/08/11 07:20:18;;;;;;;1171.25;999.90;;;;;;;;;;5027502;28;20033;-62
2023/08/11 07:22:45;;;;;;;1178.07;999.90;;;;;;;;;;5028408;28;20034;-63
2023/08/11 07:25:12;;;;;;;1171.78;999.90;;;;;;;;;;5024112;28;20072;-63
2023/08/11 07:27:38;;;;;;;1179.07;999.90;;;;;;;;;;5023438;28;20052;-60
2023/08/11 07:30:05;;;;;;;1187.53;999.90;;;;;;;;;;5024262;28;20034;-62
2023/08/11 07:32:32;;;;;;;1179.43;999.90;;;;;;;;;;5021785;28;20042;-62
2023/08/11 07:34:59;;;;;;;1174.78;999.90;;;;;;;;;;5019222;28;20045;-62
2023/08/11 07:37:26;;;;;;;1175.50;999.90;;;;;;;;;;5024032;28;20402;-61
2023/08/11 07:39:53;;;;;;;1181.15;999.90;;;;;;;;;;5027213;28;20108;-62
2023/08/11 07:42:19;;;;;;;1179.85;999.90;;;;;;;;;;5023840;28;20535;-63
2023/08/11 07:44:46;;;;;;;1169.07;999.90;;;;;;;;;;5023365;28;20084;-62
2023/08/11 07:47:12;;;;;;;1172.60;999.90;;;;;;;;;;5023535;28;20120;-62
2023/08/11 07:49:39;;;;;;;1168.18;999.90;;;;;;;;;;5026579;28;20083;-61
2023/08/11 07:52:06;;;;;;;1158.20;999.90;;;;;;;;;;5026024;28;20048;-62
2023/08/11 07:54:32;;;;;;;1152.82;999.90;;;;;;;;;;5024711;28;20091;-62
2023/08/11 07:57:00;;;;;;;1139.95;999.90;;;;;;;;;;5020417;28;20049;-66
2023/08/11 07:59:27;;;;;;;1125.22;999.90;;;;;;;;;;5012725;28;20128;-63
2023/08/11 08:01:53;;;;;;;1108.28;999.90;;;;;;;;;;5021525;28;20054;-64
2023/08/11 08:04:20;;;;;;;1104.72;999.90;;;;;;;;;;5019848;28;20088;-64
2023/08/11 08:06:47;;;;;;;1087.85;991.53;;;;;;;;;;5027692;28;20073;-68
2023/08/11 08:09:14;;;;;;;1086.82;991.13;;;;;;;;;;5021463;28;20037;-64
2023/08/11 08:11:46;;;;;;;1084.07;987.47;;;;;;;;;;5019483;28;20429;-63
2023/08/11 08:14:13;;;;;;;1079.25;984.45;;;;;;;;;;5019195;28;20042;-64
2023/08/11 08:16:46;;;;;;;1073.82;979.13;;;;;;;;;;5020805;28;20052;-65
2023/08/11 08:19:14;;;;;;;1069.15;974.22;;;;;;;;;;5029050;28;20119;-63
2023/08/11 08:21:42;;;;;;;1072.32;977.83;;;;;;;;;;5008029;28;20133;-61
2023/08/11 08:24:09;;;;;;;1073.47;978.10;;;;;;;;;;5020971;28;20065;-63
2023/08/11 08:26:36;;;;;;;1074.40;976.58;;;;;;;;;;5022724;28;20428;-68
2023/08/11 08:29:03;;;;;;;1070.75;975.65;;;;;;;;;;5003627;28;20156;-64
2023/08/11 08:31:30;;;;;;;1076.60;968.90;;;;;;;;;;5003751;28;20424;-64
2023/08/11 08:33:57;;;;;;;1062.43;968.00;;;;;;;;;;5026579;28;20140;-63
2023/08/11 08:36:24;;;;;;;1064.25;970.70;;;;;;;;;;5021308;28;20034;-66
2023/08/11 08:38:51;;;;;;;1069.68;972.47;;;;;;;;;;5027571;28;20033;-64
2023/08/11 08:41:23;;;;;;;1059.43;964.85;;;;;;;;;;5022606;28;20050;-65
2023/08/11 08:43:53;;;;;;;1055.65;962.63;;;;;;;;;;5019473;28;20049;-63
2023/08/11 08:46:21;;;;;;;1060.55;966.38;;;;;;;;;;5019905;28;20087;-62
2023/08/11 08:48:53;;;;;;;1058.97;965.00;;;;;;;;;;5004727;28;20037;-60
2023/08/11 08:51:19;;;;;;;1062.40;969.22;;;;;;;;;;5021967;28;20057;-67
2023/08/11 08:53:46;;;;;;;1061.35;966.50;;;;;;;;;;5025314;28;20037;-66
2023/08/11 08:56:13;;;;;;;1064.30;970.83;;;;;;;;;;5026307;28;20033;-67
2023/08/11 08:58:41;;;;;;;1060.82;967.33;;;;;;;;;;5027502;28;20045;-66
2023/08/11 09:01:09;;;;;;;1064.15;970.70;;;;;;;;;;5024201;28;20041;-66
2023/08/11 09:03:37;;;;;;;1061.75;967.97;;;;;;;;;;5023212;28;20578;-72
2023/08/11 09:06:05;;;;;;;1075.40;979.03;;;;;;;;;;5018265;28;20053;-67
2023/08/11 09:08:32;;;;;;;1064.90;968.17;;;;;;;;;;5020584;28;20053;-68
2023/08/11 09:10:59;;;;;;;1056.30;963.53;;;;;;;;;;5022039;28;20041;-66
2023/08/11 09:13:26;;;;;;;1058.05;965.20;;;;;;;;;;5024887;28;20041;-67
2023/08/11 09:15:52;;;;;;;1059.85;967.45;;;;;;;;;;5020548;28;20049;-68
2023/08/11 09:18:19;;;;;;;1041.32;948.80;;;;;;;;;;5025145;28;20386;-68
2023/08/11 09:20:46;;;;;;;1057.68;952.50;;;;;;;;;;5022953;28;20025;-66
2023/08/11 09:23:13;;;;;;;1041.30;948.45;;;;;;;;;;5008623;28;20068;-66
2023/08/11 09:25:40;;;;;;;1045.95;952.10;;;;;;;;;;5030463;28;20418;-68
2023/08/11 09:28:06;;;;;;;1042.95;950.03;;;;;;;;;;5023965;28;20049;-67
2023/08/11 09:30:33;;;;;;;1046.60;953.13;;;;;;;;;;5029816;28;20386;-66
2023/08/11 09:33:00;;;;;;;1048.00;955.45;;;;;;;;;;5005619;28;20046;-67
2023/08/11 09:35:27;;;;;;;1055.90;958.75;;;;;;;;;;5005691;28;20045;-66
2023/08/11 09:37:55;;;;;;;1044.00;950.28;;;;;;;;;;5012555;28;20521;-67
2023/08/11 09:40:22;;;;;;;1049.25;957.13;;;;;;;;;;5024267;28;20054;-67
2023/08/11 09:42:49;;;;;;;1055.35;955.50;;;;;;;;;;5022275;28;20095;-67
2023/08/11 09:45:17;;;;;;;1055.60;963.67;;;;;;;;;;5025902;28;20537;-66
2023/08/11 09:47:44;;;;;;;1059.93;965.80;;;;;;;;;;5021578;28;20045;-66
2023/08/11 09:50:11;;;;;;;1058.22;964.13;;;;;;;;;;5022059;28;20061;-66
2023/08/11 09:52:39;;;;;;;1066.85;972.67;;;;;;;;;;5029917;28;20042;-66
2023/08/11 09:55:08;;;;;;;1066.78;972.33;;;;;;;;;;5023344;28;20471;-66
2023/08/11 09:57:36;;;;;;;1073.43;978.15;;;;;;;;;;5025011;28;20037;-67
2023/08/11 10:00:04;;;;;;;1072.05;978.03;;;;;;;;;;5023135;28;20482;-67
2023/08/11 10:02:32;;;;;;;1072.43;977.58;;;;;;;;;;5021697;28;20461;-67
2023/08/11 10:05:01;;;;;;;1060.10;957.17;;;;;;;;;;5022076;28;20044;-65
2023/08/11 10:07:34;;;;;;;1057.55;965.45;;;;;;;;;;5023467;28;20099;-66
2023/08/11 10:10:21;;;;;;;1050.45;958.05;;;;;;;;;;5004075;28;20049;-66
2023/08/11 10:12:51;;;;;;;1060.88;966.53;;;;;;;;;;4988341;28;20069;-66
2023/08/11 10:15:21;;;;;;;1062.75;968.65;;;;;;;;;;5006063;28;20471;-66
2023/08/11 10:17:48;;;;;;;1056.20;957.33;;;;;;;;;;5023033;28;20045;-67
2023/08/11 10:20:15;;;;;;;1054.78;961.30;;;;;;;;;;5003328;28;20065;-68
2023/08/11 10:22:42;;;;;;;1057.82;963.83;;;;;;;;;;5022154;28;20478;-69
2023/08/11 10:25:09;;;;;;;1059.07;963.40;;;;;;;;;;5026256;28;20053;-67
2023/08/11 10:27:36;;;;;;;1063.15;967.33;;;;;;;;;;5025184;28;20030;-67
2023/08/11 10:30:04;;;;;;;1067.88;972.40;;;;;;;;;;5022524;28;20056;-67
2023/08/11 10:32:31;;;;;;;1070.28;974.83;;;;;;;;;;5022560;28;20121;-67
2023/08/11 10:34:58;;;;;;;1062.53;969.97;;;;;;;;;;5021408;28;20124;-67
2023/08/11 10:37:30;;;;;;;1065.20;971.85;;;;;;;;;;5022442;28;20165;-67
2023/08/11 10:40:07;;;;;;;1054.93;963.22;;;;;;;;;;4988342;28;20068;-69
2023/08/11 10:42:37;;;;;;;1055.72;963.67;;;;;;;;;;5021115;28;20030;-67
2023/08/11 10:45:10;;;;;;;1059.68;966.97;;;;;;;;;;5023045;28;20030;-67
2023/08/11 10:47:38;;;;;;;1070.55;975.30;;;;;;;;;;5025013;28;20451;-67
2023/08/11 10:50:08;;;;;;;1065.47;973.25;;;;;;;;;;5021473;28;20041;-67
2023/08/11 10:52:35;;;;;;;1050.68;959.33;;;;;;;;;;5020254;28;20049;-67
2023/08/11 10:55:02;;;;;;;1063.78;971.17;;;;;;;;;;5026742;28;20486;-67
2023/08/11 10:57:31;;;;;;;1058.72;965.10;;;;;;;;;;5021116;28;20111;-67
2023/08/11 10:59:57;;;;;;;1063.47;970.50;;;;;;;;;;5020586;28;20172;-67
2023/08/11 11:02:24;;;;;;;1067.93;973.90;;;;;;;;;;5022207;28;20053;-68
2023/08/11 11:04:52;;;;;;;1077.55;974.90;;;;;;;;;;5023019;28;20132;-67
2023/08/11 11:07:20;;;;;;;1082.15;987.25;;;;;;;;;;5020625;28;20045;-66
2023/08/11 11:09:47;;;;;;;1075.60;981.58;;;;;;;;;;5021684;28;20058;-67
2023/08/11 11:12:14;;;;;;;1088.63;992.45;;;;;;;;;;5022270;28;20045;-67
2023/08/11 11:14:40;;;;;;;1094.20;994.47;;;;;;;;;;5022836;28;20041;-67
2023/08/11 11:17:07;;;;;;;1079.20;985.20;;;;;;;;;;5017905;28;20133;-66
2023/08/11 11:19:35;;;;;;;1072.57;978.92;;;;;;;;;;5018568;28;20127;-68
2023/08/11 11:22:02;;;;;;;1073.35;980.00;;;;;;;;;;5012686;28;20037;-68
2023/08/11 11:24:29;;;;;;;1065.20;971.42;;;;;;;;;;5028353;28;20038;-66
2023/08/11 11:26:56;;;;;;;1073.03;977.45;;;;;;;;;;5028682;28;20040;-67
2023/08/11 11:29:28;;;;;;;1053.47;960.10;;;;;;;;;;4988905;28;20125;-66
2023/08/11 11:31:55;;;;;;;1052.93;960.40;;;;;;;;;;5027643;28;20041;-69
2023/08/11 11:34:22;;;;;;;1046.20;954.25;;;;;;;;;;5019673;28;20364;-68
2023/08/11 11:36:50;;;;;;;1038.07;945.85;;;;;;;;;;5021318;28;20029;-66
2023/08/11 11:39:18;;;;;;;1041.82;949.35;;;;;;;;;;5021243;28;20051;-67
2023/08/11 11:41:44;;;;;;;1044.57;946.35;;;;;;;;;;5019717;28;20087;-67
2023/08/11 11:44:11;;;;;;;1034.65;942.63;;;;;;;;;;5021015;28;20046;-68
2023/08/11 11:46:38;;;;;;;1046.47;953.78;;;;;;;;;;5021632;28;20470;-67
2023/08/11 11:49:06;;;;;;;1050.82;957.13;;;;;;;;;;5025781;28;20141;-66
2023/08/11 11:51:54;;;;;;;1042.85;950.25;;;;;;;;;;5020953;28;20045;-67
2023/08/11 11:54:20;;;;;;;1055.25;945.75;;;;;;;;;;5018909;28;20123;-67
2023/08/11 11:56:47;;;;;;;1055.80;958.42;;;;;;;;;;5036777;28;20089;-67
2023/08/11 11:59:30;;;;;;;1059.13;962.47;;;;;;;;;;5034766;28;20524;-66
2023/08/11 12:02:00;;;;;;;1052.78;959.90;;;;;;;;;;4998107;28;20046;-65
2023/08/11 12:04:28;;;;;;;1059.90;967.08;;;;;;;;;;5020743;28;20042;-67
2023/08/11 12:06:55;;;;;;;1067.53;974.08;;;;;;;;;;5020875;28;20100;-67
2023/08/11 12:09:21;;;;;;;1071.72;978.03;;;;;;;;;;5014291;28;20041;-67
2023/08/11 12:11:48;;;;;;;1089.38;993.50;;;;;;;;;;5021189;28;20045;-67
2023/08/11 12:14:15;;;;;;;1074.30;979.75;;;;;;;;;;5020735;28;20053;-68
2023/08/11 12:16:41;;;;;;;1081.13;986.53;;;;;;;;;;5019610;28;20417;-67
2023/08/11 12:19:08;;;;;;;1092.80;996.28;;;;;;;;;;5017482;28;20033;-68
2023/08/11 12:21:36;;;;;;;1082.90;988.25;;;;;;;;;;5020387;28;20054;-66
2023/08/11 12:24:04;;;;;;;1074.45;980.70;;;;;;;;;;5017864;28;20485;-68
2023/08/11 12:26:31;;;;;;;1080.43;982.58;;;;;;;;;;5024003;28;20149;-68
2023/08/11 12:28:58;;;;;;;1064.32;971.42;;;;;;;;;;5010980;28;20038;-67
2023/08/11 12:31:24;;;;;;;1071.07;977.05;;;;;;;;;;5023635;28;20034;-66
2023/08/11 12:33:51;;;;;;;1080.47;986.70;;;;;;;;;;5025206;28;20042;-67
2023/08/11 12:36:18;;;;;;;1083.18;987.92;;;;;;;;;;5024918;28;20378;-67
2023/08/11 12:38:45;;;;;;;1101.70;999.40;;;;;;;;;;5023455;28;20054;-67
2023/08/11 12:41:11;;;;;;;1085.47;990.78;;;;;;;;;;5005644;28;20060;-66
2023/08/11 12:43:38;;;;;;;1092.80;996.28;;;;;;;;;;5032445;28;20128;-67
2023/08/11 12:46:05;;;;;;;1093.60;997.55;;;;;;;;;;5025599;28;20072;-67
2023/08/11 12:48:32;;;;;;;1086.40;992.38;;;;;;;;;;5027824;28;20118;-67
2023/08/11 12:50:58;;;;;;;1091.82;995.85;;;;;;;;;;5022729;28;20029;-68
2023/08/11 12:53:25;;;;;;;1102.88;999.47;;;;;;;;;;5023339;28;20033;-67
2023/08/11 12:55:52;;;;;;;1095.03;997.75;;;;;;;;;;5026005;28;20478;-67
2023/08/11 12:58:18;;;;;;;1098.32;995.80;;;;;;;;;;5025700;28;20506;-67
2023/08/11 13:00:45;;;;;;;1111.25;999.90;;;;;;;;;;5027557;28;20045;-67
2023/08/11 13:03:12;;;;;;;1110.22;999.90;;;;;;;;;;5026117;28;20437;-67
2023/08/11 13:05:39;;;;;;;1108.88;999.90;;;;;;;;;;5022880;28;20045;-67
2023/08/11 13:08:05;;;;;;;1097.35;998.78;;;;;;;;;;5024683;28;20155;-67
2023/08/11 13:10:32;;;;;;;1096.43;998.58;;;;;;;;;;5025331;28;20041;-69
2023/08/11 13:12:59;;;;;;;1103.25;999.90;;;;;;;;;;5025590;28;20339;-67
2023/08/11 13:15:26;;;;;;;1094.95;998.33;;;;;;;;;;5025477;28;20037;-67
2023/08/11 13:17:52;;;;;;;1094.95;998.00;;;;;;;;;;5024039;28;20045;-67
2023/08/11 13:20:19;;;;;;;1096.20;997.80;;;;;;;;;;5026912;28;20037;-69
2023/08/11 13:22:46;;;;;;;1085.68;990.95;;;;;;;;;;5024270;28;20038;-68
2023/08/11 13:25:13;;;;;;;1097.63;999.35;;;;;;;;;;5021407;28;20046;-68
2023/08/11 13:27:42;;;;;;;1097.18;997.92;;;;;;;;;;5026663;28;20046;-67
2023/08/11 13:30:11;;;;;;;1097.72;997.85;;;;;;;;;;5024356;28;20493;-68
2023/08/11 13:32:38;;;;;;;1096.47;996.58;;;;;;;;;;5007098;28;20394;-68
2023/08/11 13:35:05;;;;;;;1082.50;988.70;;;;;;;;;;5025263;28;20100;-67
2023/08/11 13:37:32;;;;;;;1083.55;987.13;;;;;;;;;;5024622;28;20042;-68
2023/08/11 13:39:59;;;;;;;1069.32;976.10;;;;;;;;;;5021228;28;20087;-68
2023/08/11 13:42:27;;;;;;;1074.72;981.05;;;;;;;;;;5025260;28;20045;-66
2023/08/11 13:44:53;;;;;;;1062.18;968.60;;;;;;;;;;5022248;28;20046;-67